DAUA

Details ICAO DAUA (AZR)
Name TOUAT CHEIKH SIDI MOHAMED BELKEBIR
Region Algeria
Timezone Africa/Algiers (UTC+1.0)
Plans Departing 43
Arriving 27
Stats Elevation 919 ft / 280 m (AMSL)
Location 27.837639° -0.186389°
Runways 1
Magnetic Variation 0.046° W
Sunrise 2018-05-23 05:09:06 UTC / 2018-05-23 06:09:06 Local
Sunset 2018-05-23 18:48:45 UTC / 2018-05-23 19:48:45 Local
Advertisement - Login to hide

Runways

ID Width Length Bearing (true) Bearing (mag) Surface Threshold Offset Overrun Length
04 148 ft / 45 m 9,857 ft / 3,005 m 39.53° 39.58° Asphalt 0 ft / 0 m 0 ft / 0 m
22 148 ft / 45 m 9,857 ft / 3,005 m 219.54° 219.59° Asphalt 0 ft / 0 m 0 ft / 0 m

Map

Weather


0- 5 10 15 20 25 30 35+ Temperature / ° C

Clouds and Precipitation
Forecast for 2018-05-23 06:00 UTC. Updated 33 minutes ago

Ground ~20,000 ft ~40,000 ft Winds

METAR

DAUA 230300Z 00000KT 8000 NSC 21/// Q1010

TAF

TAF DAUA 222300Z 2300/2324 22008KT 8000 NSC

Frequencies

Tower 119.70 MHz ADRAR TWR
Tower 118.30 MHz ADRAR TWR
Warning: Do not use this data for real-world aviation or navigation. No guarantee of current accuracy is given.